Time;durP1;ratioP1;P1;durP2;ratioP2;P2;SDS_P1;SDS_P2;PMS_P1;PMS_P2;Temp;Humidity;BMP_temperature;BMP_pressure;BME280_temperature;BME280_humidity;BME280_pressure;Samples;Min_cycle;Max_cycle;Signal;HPM_P1;HPM_P2
2021/05/24 00:01:37;;;;;;;7.75;5.03;;;7.00;99.90;;;5.53;100.00;101397.38;5021987;28;20520;-77
2021/05/24 00:04:04;;;;;;;8.60;5.03;;;7.00;99.90;;;5.55;100.00;101390.41;5028656;28;20108;-78
2021/05/24 00:06:30;;;;;;;11.07;5.60;;;7.10;99.90;;;5.64;100.00;101384.16;5032922;28;20117;-77
2021/05/24 00:08:56;;;;;;;8.90;5.85;;;7.20;99.90;;;5.78;100.00;101385.69;5021769;28;20074;-77
2021/05/24 00:11:22;;;;;;;10.32;6.03;;;7.30;99.90;;;5.91;100.00;101387.19;5016981;28;20075;-77
2021/05/24 00:13:56;;;;;;;12.18;6.13;;;7.30;99.90;;;5.89;100.00;101386.38;5010886;28;20062;-77
2021/05/24 00:16:23;;;;;;;9.18;5.80;;;7.30;99.90;;;5.89;100.00;101383.75;5009247;28;20477;-77
2021/05/24 00:18:51;;;;;;;11.88;6.60;;;7.30;99.90;;;5.90;100.00;101385.50;5008089;28;20425;-77
2021/05/24 00:21:21;;;;;;;11.55;6.38;;;7.30;99.90;;;5.91;100.00;101390.69;5017839;28;20095;-77
2021/05/24 00:23:48;;;;;;;15.05;6.72;;;7.40;99.90;;;5.96;100.00;101385.41;4991989;28;20081;-78
2021/05/24 00:26:16;;;;;;;12.43;6.68;;;7.40;99.90;;;5.97;100.00;101389.75;5042135;28;21563;-77
2021/05/24 00:28:42;;;;;;;15.02;7.13;;;7.30;99.90;;;5.93;100.00;101382.81;4982604;28;20079;-77
2021/05/24 00:31:08;;;;;;;11.85;6.70;;;7.30;99.90;;;5.90;100.00;101378.50;4995542;28;20268;-77
2021/05/24 00:33:36;;;;;;;15.50;6.80;;;7.40;99.90;;;5.94;100.00;101385.44;5006315;28;20105;-77
2021/05/24 00:36:04;;;;;;;11.63;6.22;;;7.30;99.90;;;5.90;100.00;101375.91;5033486;28;20519;-77
2021/05/24 00:38:30;;;;;;;13.63;6.35;;;7.30;99.90;;;5.83;100.00;101378.63;5033292;28;20454;-77
2021/05/24 00:40:56;;;;;;;14.82;6.68;;;7.20;99.90;;;5.81;100.00;101375.16;5006522;28;20100;-78
2021/05/24 00:43:22;;;;;;;10.20;6.30;;;7.20;99.90;;;5.82;100.00;101379.53;5028454;28;20075;-78
2021/05/24 00:45:48;;;;;;;10.50;6.60;;;7.20;99.90;;;5.78;100.00;101373.47;5011720;28;20113;-77
2021/05/24 00:48:13;;;;;;;12.52;6.32;;;7.20;99.90;;;5.73;100.00;101373.56;5034207;28;20117;-77
2021/05/24 00:50:47;;;;;;;15.65;6.18;;;7.20;99.90;;;5.72;100.00;101373.56;5047479;28;20065;-77
2021/05/24 00:53:13;;;;;;;11.25;5.68;;;7.10;99.90;;;5.68;100.00;101378.00;4989483;28;20472;-77
2021/05/24 00:55:39;;;;;;;10.30;5.75;;;7.10;99.90;;;5.62;100.00;101369.41;5034005;28;20545;-77
2021/05/24 00:58:05;;;;;;;9.60;6.20;;;7.00;99.90;;;5.57;100.00;101369.44;5011555;28;20070;-77
2021/05/24 01:00:44;;;;;;;9.50;5.65;;;7.00;99.90;;;5.56;100.00;101365.13;5007564;28;20555;-77
2021/05/24 01:03:20;;;;;;;12.68;5.78;;;7.00;99.90;;;5.58;100.00;101372.94;4965942;28;20075;-77
2021/05/24 01:05:46;;;;;;;11.80;5.88;;;7.00;99.90;;;5.55;100.00;101366.03;5012297;28;20557;-77
2021/05/24 01:08:14;;;;;;;13.13;5.22;;;7.00;99.90;;;5.54;100.00;101367.75;5028567;28;20081;-77
2021/05/24 01:10:48;;;;;;;9.77;5.28;;;7.00;99.90;;;5.51;100.00;101373.03;4995442;28;20082;-77
2021/05/24 01:13:15;;;;;;;11.00;5.68;;;6.90;99.90;;;5.51;100.00;101373.03;5059918;28;20071;-77
2021/05/24 01:15:42;;;;;;;11.00;5.10;;;7.00;99.90;;;5.47;100.00;101366.13;5042560;28;20074;-78
2021/05/24 01:18:10;;;;;;;11.45;5.22;;;7.00;99.90;;;5.51;100.00;101367.81;4984290;28;20457;-77
2021/05/24 01:20:37;;;;;;;10.80;5.28;;;7.00;99.90;;;5.53;100.00;101363.44;4990080;28;20072;-77
2021/05/24 01:25:39;;;;;;;12.75;5.47;;;7.00;99.90;;;5.54;100.00;101361.66;5005112;28;20086;-78
2021/05/24 01:28:07;;;;;;;;;;;7.00;99.90;;;5.54;100.00;101362.53;4988681;28;20146;-77
2021/05/24 01:30:34;;;;;;;9.35;5.40;;;7.00;99.90;;;5.53;100.00;101358.19;5012101;28;20488;-77
2021/05/24 01:33:00;;;;;;;11.77;5.75;;;7.00;99.90;;;5.57;100.00;101350.31;4974776;28;20170;-77
2021/05/24 01:35:26;;;;;;;10.68;5.95;;;7.00;99.90;;;5.52;100.00;101355.59;5024752;28;20070;-77
2021/05/24 01:37:57;;;;;;;9.70;4.90;;;7.00;99.90;;;5.52;100.00;101359.06;4988860;28;20560;-77
2021/05/24 01:40:26;;;;;;;8.30;4.78;;;7.00;99.90;;;5.46;100.00;101355.69;5023753;28;20079;-77
2021/05/24 01:42:56;;;;;;;13.50;5.10;;;6.90;99.90;;;5.38;100.00;101362.78;4992167;28;20056;-77
2021/05/24 01:45:26;;;;;;;8.10;5.15;;;6.80;99.90;;;5.31;100.00;101346.34;5016984;28;20135;-77
2021/05/24 01:47:54;;;;;;;9.38;5.10;;;6.80;99.90;;;5.23;100.00;101353.44;4992068;28;20074;-77
2021/05/24 01:50:22;;;;;;;10.43;5.32;;;6.80;99.90;;;5.26;100.00;101351.63;5030629;28;20085;-78
2021/05/24 01:52:51;;;;;;;9.73;4.75;;;6.70;99.90;;;5.23;100.00;101356.06;5025064;28;20075;-77
2021/05/24 01:55:18;;;;;;;7.45;4.55;;;6.70;99.90;;;5.21;100.00;101350.84;4999848;28;20141;-78
2021/05/24 01:57:44;;;;;;;8.25;4.90;;;6.70;99.90;;;5.12;100.00;101357.06;5026873;28;20064;-77
2021/05/24 02:00:14;;;;;;;8.48;4.82;;;6.60;99.90;;;5.07;100.00;101351.03;4997584;28;20107;-77
2021/05/24 02:02:44;;;;;;;11.38;5.15;;;6.60;99.90;;;5.08;100.00;101350.16;5009258;28;20240;-77
2021/05/24 02:05:13;;;;;;;10.18;4.97;;;6.60;99.90;;;5.02;100.00;101338.94;5008495;28;20530;-77
2021/05/24 02:07:40;;;;;;;13.13;5.38;;;6.50;99.90;;;5.06;100.00;101349.31;5018598;28;20087;-77
2021/05/24 02:10:09;;;;;;;11.32;5.35;;;6.60;99.90;;;5.13;100.00;101339.66;5020842;28;20076;-77
2021/05/24 02:12:35;;;;;;;10.63;5.75;;;6.60;99.90;;;5.17;100.00;101348.31;5002219;28;20057;-78
2021/05/24 02:15:06;;;;;;;8.38;5.85;;;6.70;99.90;;;5.14;100.00;101341.38;5004155;28;20557;-78
2021/05/24 02:17:32;;;;;;;9.23;5.38;;;6.60;99.90;;;5.11;100.00;101338.81;4995945;28;20074;-77
2021/05/24 02:20:03;;;;;;;9.65;5.82;;;6.60;99.90;;;5.11;100.00;101342.28;5045221;28;20084;-77
2021/05/24 02:22:29;;;;;;;13.07;6.50;;;6.60;99.90;;;5.07;100.00;101340.59;4989996;28;20090;-77
2021/05/24 02:24:54;;;;;;;10.13;6.18;;;6.60;99.90;;;5.07;100.00;101342.34;5012125;28;20063;-77
2021/05/24 02:27:20;;;;;;;9.23;6.03;;;6.60;99.90;;;5.10;100.00;101340.56;5026725;28;20074;-77
2021/05/24 02:29:46;;;;;;;12.68;5.88;;;6.60;99.90;;;5.03;100.00;101336.31;5016210;28;20414;-78
2021/05/24 02:32:12;;;;;;;12.85;5.93;;;6.50;99.90;;;4.92;100.00;101331.25;5006356;28;20073;-77
2021/05/24 02:34:38;;;;;;;10.82;5.35;;;6.30;99.90;;;4.80;100.00;101328.78;5022486;28;20120;-78
2021/05/24 02:37:11;;;;;;;9.00;5.63;;;6.30;99.90;;;4.75;100.00;101327.09;4996295;28;20125;-77
2021/05/24 02:39:37;;;;;;;10.73;5.72;;;6.30;99.90;;;4.79;100.00;101318.38;4987211;28;20070;-77
2021/05/24 02:42:04;;;;;;;12.38;5.85;;;6.40;99.90;;;4.85;100.00;101329.59;4996754;28;20577;-78
2021/05/24 02:44:30;;;;;;;13.05;6.47;;;6.40;99.90;;;4.88;100.00;101323.44;5012833;28;20067;-78
2021/05/24 02:47:00;;;;;;;13.82;6.30;;;6.40;99.90;;;4.93;100.00;101329.50;5021633;28;20571;-78
2021/05/24 02:49:26;;;;;;;11.25;6.40;;;6.50;99.90;;;5.04;100.00;101326.72;5028339;28;20073;-78
2021/05/24 02:51:52;;;;;;;12.50;7.82;;;6.70;99.90;;;5.25;100.00;101321.19;5005549;28;20131;-77
2021/05/24 02:54:18;;;;;;;14.68;7.45;;;6.80;99.90;;;5.29;100.00;101324.59;4981900;28;20107;-77
2021/05/24 02:56:44;;;;;;;13.85;7.35;;;6.80;99.90;;;5.28;100.00;101317.69;4984584;28;20072;-77
2021/05/24 02:59:18;;;;;;;11.85;7.05;;;6.90;99.90;;;5.34;100.00;101313.22;4968005;28;20072;-77
2021/05/24 03:01:44;;;;;;;14.68;7.97;;;6.90;99.90;;;5.48;100.00;101320.81;5057443;28;20097;-77
2021/05/24 03:04:10;;;;;;;17.30;7.25;;;7.00;99.90;;;5.48;100.00;101320.81;5004970;28;20063;-77
2021/05/24 03:06:37;;;;;;;14.77;7.72;;;7.00;99.90;;;5.52;100.00;101329.47;5006834;28;23057;-78
2021/05/24 03:09:06;;;;;;;14.15;7.80;;;7.00;99.90;;;5.51;100.00;101325.16;4973146;28;20529;-77
2021/05/24 03:11:33;;;;;;;10.65;7.03;;;7.00;99.90;;;5.51;100.00;101326.03;5054288;28;20074;-77
2021/05/24 03:13:59;;;;;;;13.80;7.00;;;7.00;99.90;;;5.54;100.00;101331.19;4959555;28;20067;-77
2021/05/24 03:16:25;;;;;;;14.13;7.32;;;7.00;99.90;;;5.55;100.00;101332.91;4998993;28;20063;-77
2021/05/24 03:18:51;;;;;;;13.60;7.63;;;7.00;99.90;;;5.58;100.00;101328.53;5007494;28;20083;-77
2021/05/24 03:21:17;;;;;;;10.45;6.30;;;7.10;99.90;;;5.58;100.00;101323.31;4990094;28;20079;-77
2021/05/24 03:23:45;;;;;;;14.32;6.68;;;7.10;99.90;;;5.53;100.00;101332.09;4980928;28;20107;-77
2021/05/24 03:26:11;;;;;;;12.85;7.07;;;7.10;99.90;;;5.53;100.00;101329.47;5015409;28;20068;-78
2021/05/24 03:28:39;;;;;;;12.55;6.53;;;7.10;99.90;;;5.59;100.00;101322.41;5007296;28;20101;-77
2021/05/24 03:31:05;;;;;;;11.00;6.55;;;7.10;99.90;;;5.67;100.00;101331.84;5035404;28;20060;-77
2021/05/24 03:33:31;;;;;;;10.32;5.82;;;7.30;99.90;;;5.77;100.00;101335.19;5058031;28;20607;-77
2021/05/24 03:35:57;;;;;;;15.40;6.05;;;7.40;99.90;;;5.92;100.00;101329.69;5031051;28;20081;-77
2021/05/24 03:38:22;;;;;;;9.95;5.60;;;7.50;99.90;;;6.04;100.00;101335.59;5025010;28;20072;-77
2021/05/24 03:40:48;;;;;;;13.40;6.25;;;7.60;99.90;;;6.08;100.00;101332.06;4974439;28;20086;-77
2021/05/24 03:43:16;;;;;;;13.88;6.15;;;7.60;99.90;;;6.19;99.62;101332.72;5017230;28;20069;-77
2021/05/24 03:45:42;;;;;;;7.90;5.50;;;7.70;99.90;;;6.20;99.16;101326.59;5040775;28;20072;-78
2021/05/24 03:48:11;;;;;;;9.07;5.45;;;7.80;99.90;;;6.24;99.28;101333.50;5012689;28;20074;-78
2021/05/24 03:50:37;;;;;;;10.00;6.03;;;7.90;99.90;;;6.41;98.50;101329.69;5012592;28;20067;-77
2021/05/24 03:53:05;;;;;;;9.13;5.55;;;8.20;99.90;;;6.71;97.44;101326.44;5020436;28;20070;-77
2021/05/24 03:55:31;;;;;;;14.13;5.30;;;8.80;99.90;;;7.38;93.85;101328.44;4992426;28;20478;-78
2021/05/24 03:57:57;;;;;;;8.23;4.72;;;9.40;99.90;;;7.88;91.64;101333.34;4990932;28;20065;-77
2021/05/24 04:00:23;;;;;;;8.82;4.55;;;10.10;99.90;;;8.75;89.13;101325.72;5024957;28;20106;-77
2021/05/24 04:02:50;;;;;;;4.72;3.35;;;10.80;99.90;;;9.35;85.12;101325.66;5022670;28;20083;-78
2021/05/24 04:07:51;;;;;;;4.25;2.78;;;11.60;99.90;;;10.13;80.68;101330.06;5016707;28;20054;-77
2021/05/24 04:10:18;;;;;;;6.15;3.10;;;11.70;99.90;;;10.35;78.06;101333.69;4969557;28;20083;-77
2021/05/24 04:12:44;;;;;;;5.85;3.08;;;11.90;99.90;;;10.58;77.64;101326.72;4970855;28;20154;-78
2021/05/24 04:15:15;;;;;;;7.20;2.88;;;12.30;99.90;;;11.14;74.82;101336.88;5001734;28;20065;-77
2021/05/24 04:17:42;;;;;;;5.68;2.67;;;12.50;99.90;;;11.26;74.74;101333.75;5036918;28;20066;-78
2021/05/24 04:20:11;;;;;;;6.18;2.75;;;12.40;99.90;;;11.01;75.62;101333.84;4974989;28;20057;-79
2021/05/24 04:22:45;;;;;;;6.03;2.55;;;11.90;99.90;;;10.43;78.85;101334.28;5009265;28;21133;-78
2021/05/24 04:25:12;;;;;;;9.43;2.72;;;11.90;99.90;;;10.58;78.64;101337.25;5041288;28;20058;-77
2021/05/24 04:27:38;;;;;;;4.25;2.55;;;11.90;99.90;;;10.53;79.60;101345.31;5025037;28;20080;-77
2021/05/24 04:30:08;;;;;;;6.07;2.97;;;11.60;99.90;;;10.18;81.30;101338.66;4992642;28;20168;-78
2021/05/24 04:32:37;;;;;;;9.60;3.13;;;11.30;99.90;;;9.86;82.66;101346.75;4988267;28;20534;-77
2021/05/24 04:35:05;;;;;;;5.38;3.55;;;10.80;99.90;;;9.28;85.47;101350.41;5006861;28;20446;-77
2021/05/24 04:37:32;;;;;;;5.88;3.50;;;10.30;99.90;;;8.75;87.66;101346.75;5027784;28;21089;-77
2021/05/24 04:39:57;;;;;;;4.57;3.33;;;10.00;99.90;;;8.43;89.44;101352.91;5001582;28;20088;-77
2021/05/24 04:42:29;;;;;;;5.18;3.35;;;9.60;99.90;;;8.31;90.78;101350.56;4999480;28;20086;-77
2021/05/24 04:44:55;;;;;;;5.20;3.08;;;9.70;99.90;;;8.40;90.55;101358.19;4996832;28;20074;-77
2021/05/24 04:47:21;;;;;;;7.35;3.75;;;9.80;99.90;;;8.63;89.63;101347.94;5012296;28;20069;-77
2021/05/24 04:49:50;;;;;;;7.53;3.65;;;10.10;99.90;;;8.99;88.37;101342.53;5012811;28;20074;-78
2021/05/24 04:52:19;;;;;;;4.05;3.35;;;10.40;99.90;;;9.07;87.94;101337.06;4971952;28;20070;-78
2021/05/24 04:54:46;;;;;;;5.80;3.60;;;10.40;99.90;;;9.30;87.63;101338.09;4984758;28;20142;-78
2021/05/24 04:57:12;;;;;;;7.05;3.58;;;10.80;99.90;;;9.70;86.17;101336.78;5013749;28;20537;-77
2021/05/24 04:59:39;;;;;;;6.35;3.25;;;11.20;99.90;;;10.12;84.81;101337.09;4981372;28;20108;-77
2021/05/24 05:02:05;;;;;;;9.52;3.72;;;11.60;99.90;;;10.36;84.07;101334.56;5005010;28;20090;-77
2021/05/24 05:04:39;;;;;;;7.55;3.33;;;11.80;99.90;;;10.64;82.19;101337.88;5006472;28;20172;-78
2021/05/24 05:07:05;;;;;;;8.30;3.22;;;11.70;99.90;;;10.19;83.87;101335.97;5023874;28;20070;-78
2021/05/24 05:09:30;;;;;;;5.80;3.00;;;11.40;99.90;;;9.67;86.28;101343.00;5022246;28;20514;-78
2021/05/24 05:11:57;;;;;;;6.25;2.95;;;11.00;99.90;;;9.51;86.99;101333.91;4976937;28;20213;-77
2021/05/24 05:14:28;;;;;;;4.85;3.20;;;11.20;99.90;;;10.00;87.47;101340.16;4992014;28;20085;-77
2021/05/24 05:16:54;;;;;;;5.95;3.00;;;;;;;10.40;85.12;101329.13;5000092;28;20066;-78
2021/05/24 05:19:20;;;;;;;4.18;3.05;;;11.40;99.90;;;10.07;86.60;101337.25;5037885;28;20117;-78
2021/05/24 05:21:48;;;;;;;3.53;2.58;;;11.50;99.90;;;10.25;85.39;101334.91;5079134;28;20539;-77
2021/05/24 05:24:21;;;;;;;6.05;3.22;;;11.20;99.90;;;9.78;87.42;101327.75;4962988;28;20057;-77
2021/05/24 05:26:47;;;;;;;4.40;3.28;;;11.30;99.90;;;10.42;86.26;101336.97;5030354;28;20058;-78
2021/05/24 05:29:13;;;;;;;5.32;3.25;;;11.90;99.90;;;10.85;84.55;101333.59;5013981;28;20057;-77
2021/05/24 05:31:42;;;;;;;3.33;2.72;;;12.10;99.90;;;11.16;83.30;101337.66;4999340;28;20071;-77
2021/05/24 05:34:13;;;;;;;4.20;2.70;;;12.70;99.90;;;12.23;79.01;101336.81;4978146;28;20098;-78
2021/05/24 05:36:38;;;;;;;5.30;2.40;;;13.80;99.90;;;13.34;71.66;101333.47;5030814;28;20066;-78
2021/05/24 05:39:05;;;;;;;5.80;2.50;;;14.10;99.90;;;12.71;75.42;101336.41;4983827;28;20069;-77
2021/05/24 05:41:37;;;;;;;3.85;2.38;;;14.00;99.90;;;12.99;72.65;101337.75;5009579;28;20101;-77
2021/05/24 05:44:05;;;;;;;8.13;2.70;;;14.40;99.90;;;13.81;70.58;101333.84;5007411;28;20088;-78
2021/05/24 05:46:33;;;;;;;4.03;2.38;;;15.10;99.90;;;14.05;68.47;101329.94;5015517;28;20114;-78
2021/05/24 05:48:59;;;;;;;4.38;2.50;;;15.10;99.90;;;13.93;69.65;101341.16;5011514;28;20069;-77
2021/05/24 05:51:25;;;;;;;4.72;2.40;;;15.40;99.90;;;14.13;68.22;101334.84;5014854;28;20068;-78
2021/05/24 05:53:55;;;;;;;3.40;2.35;;;16.30;99.90;;;15.13;65.40;101327.69;5004911;28;20061;-78
2021/05/24 05:56:21;;;;;;;6.35;2.70;;;16.60;99.90;;;14.78;64.61;101329.66;4995861;28;20527;-78
2021/05/24 05:58:47;;;;;;;5.85;2.40;;;16.70;99.90;;;15.60;62.28;101323.28;5049588;28;20063;-78
2021/05/24 06:01:13;;;;;;;3.85;1.90;;;17.10;99.90;;;15.83;60.48;101323.75;5051086;28;20566;-78
2021/05/24 06:03:39;;;;;;;4.93;1.90;;;17.70;99.90;;;16.66;57.33;101327.56;4975332;28;20063;-78
2021/05/24 06:06:05;;;;;;;4.25;2.33;;;17.00;99.90;;;16.49;58.06;101325.94;5044843;28;20118;-78
2021/05/24 06:08:31;;;;;;;4.32;1.70;;;18.20;99.90;;;18.00;54.88;101324.19;5013721;28;20051;-78
2021/05/24 06:10:57;;;;;;;2.38;1.80;;;19.00;99.90;;;18.51;52.77;101326.88;5041340;28;20044;-78
2021/05/24 06:13:30;;;;;;;3.97;1.67;;;19.30;99.90;;;18.65;51.82;101336.56;5017658;28;20021;-77
2021/05/24 06:15:56;;;;;;;2.40;1.70;;;18.70;99.90;;;17.79;53.41;101337.97;5007005;28;20400;-78
2021/05/24 06:18:22;;;;;;;3.75;1.92;;;16.90;99.90;;;14.96;63.51;101347.19;5018290;28;20066;-77
2021/05/24 06:20:48;;;;;;;4.45;2.10;;;16.10;99.90;;;15.04;64.42;101344.13;5013306;28;20071;-77
2021/05/24 06:23:16;;;;;;;2.75;1.67;;;17.10;99.90;;;17.05;57.89;101328.66;5001897;28;20056;-78
2021/05/24 06:25:45;;;;;;;5.07;1.98;;;18.00;99.90;;;17.86;54.27;101324.28;5001524;28;20060;-79
2021/05/24 06:28:12;;;;;;;3.33;1.70;;;17.70;99.90;;;16.70;59.36;101333.53;5003869;28;20510;-78
2021/05/24 06:30:39;;;;;;;7.53;1.80;;;18.20;99.90;;;16.47;56.57;101338.47;5015422;28;20179;-78
2021/05/24 06:33:05;;;;;;;2.05;1.50;;;17.90;99.90;;;16.47;58.17;101343.78;5001931;28;20044;-78
2021/05/24 06:35:33;;;;;;;2.55;1.70;;;17.50;99.90;;;16.83;57.07;101341.63;4996117;28;20510;-78
2021/05/24 06:38:03;;;;;;;4.05;2.13;;;18.20;99.90;;;17.83;54.45;101330.66;4991631;28;20485;-78
2021/05/24 06:40:29;;;;;;;3.40;1.65;;;18.40;99.90;;;18.30;52.93;101317.72;5018932;28;20025;-79
2021/05/24 06:42:56;;;;;;;2.85;1.60;;;19.20;99.90;;;18.94;51.55;101328.31;5030207;28;20029;-78
2021/05/24 06:45:21;;;;;;;2.83;1.70;;;19.10;99.90;;;18.03;52.33;101323.97;5017571;28;20081;-78
2021/05/24 06:47:50;;;;;;;5.05;1.77;;;18.70;99.90;;;18.39;52.92;101328.56;5046173;28;20029;-78
2021/05/24 06:50:18;;;;;;;4.25;1.55;;;19.70;99.90;;;19.61;49.99;101325.13;4995459;28;20056;-78
2021/05/24 06:52:44;;;;;;;3.05;1.42;;;19.10;99.90;;;18.71;51.29;101329.94;5017127;28;20021;-78
2021/05/24 06:55:11;;;;;;;1.67;1.20;;;19.10;99.90;;;18.63;53.11;101328.66;5037003;28;20059;-78
2021/05/24 06:57:37;;;;;;;2.83;1.60;;;19.50;99.90;;;18.70;51.83;101321.06;5003947;28;20191;-78
2021/05/24 07:00:10;;;;;;;2.45;1.30;;;19.30;99.90;;;18.78;51.12;101313.41;5043228;28;22058;-78
2021/05/24 07:02:38;;;;;;;1.75;1.20;;;19.10;99.90;;;18.62;52.51;101310.97;5009134;28;20070;-78
2021/05/24 07:05:06;;;;;;;1.92;1.17;;;20.00;99.90;;;19.08;49.95;101317.50;4995739;28;20025;-78
2021/05/24 07:07:34;;;;;;;5.07;1.55;;;19.80;99.90;;;20.07;48.37;101309.16;4994029;28;20028;-78
2021/05/24 07:10:04;;;;;;;2.40;1.70;;;21.00;99.60;;;21.02;44.94;101306.13;5027276;28;20032;-79
2021/05/24 07:12:33;;;;;;;2.75;1.40;;;21.50;99.90;;;21.90;45.46;101299.72;5025230;28;20024;-78
2021/05/24 07:14:58;;;;;;;2.65;1.40;;;22.00;96.40;;;21.77;41.67;101300.88;4999342;28;20023;-77
2021/05/24 07:17:30;;;;;;;2.28;1.20;;;21.60;96.50;;;22.09;42.45;101296.31;5002083;28;20066;-78
2021/05/24 07:19:56;;;;;;;1.45;0.95;;;22.00;95.70;;;22.61;41.48;101298.09;5029596;28;20035;-78
2021/05/24 07:22:23;;;;;;;1.10;1.00;;;23.40;94.90;;;24.14;40.38;101307.41;5003631;28;20037;-79
2021/05/24 07:24:49;;;;;;;6.30;1.20;;;24.30;91.20;;;24.67;38.24;101293.38;5020642;28;20039;-78
2021/05/24 07:27:15;;;;;;;1.50;1.05;;;24.30;88.80;;;24.07;36.67;101291.00;5013248;28;20048;-78
2021/05/24 07:29:41;;;;;;;1.58;1.25;;;;;;;23.05;39.88;101299.53;5003432;28;20111;-78
2021/05/24 07:32:10;;;;;;;2.63;1.10;;;23.20;91.10;;;23.55;38.03;101291.34;5020881;28;20033;-79
2021/05/24 07:34:38;;;;;;;1.90;1.17;;;22.60;90.60;;;21.97;40.01;101299.19;4981284;28;20044;-78
2021/05/24 07:37:06;;;;;;;5.03;1.20;;;22.60;93.10;;;23.10;39.49;101296.44;5005631;28;20603;-78
2021/05/24 07:39:32;;;;;;;1.88;1.30;;;23.20;91.50;;;23.73;37.54;101296.84;5029129;28;20044;-78
2021/05/24 07:42:01;;;;;;;2.88;1.10;;;23.40;90.30;;;23.48;36.62;101295.59;5016685;28;20126;-79
2021/05/24 07:44:28;;;;;;;1.67;0.90;;;23.70;91.00;;;24.62;36.81;101294.78;5025752;28;20095;-79
2021/05/24 07:46:55;;;;;;;2.40;1.17;;;24.70;85.70;;;25.14;34.25;101289.66;5027046;28;20021;-79
2021/05/24 07:49:22;;;;;;;1.60;0.85;;;24.40;86.90;;;24.65;36.17;101278.38;4975378;28;20029;-78
2021/05/24 07:51:54;;;;;;;2.88;1.10;;;23.90;88.30;;;24.30;38.16;101285.28;4992781;28;20488;-78
2021/05/24 07:54:23;;;;;;;1.08;0.98;;;24.10;83.80;;;24.51;33.89;101288.63;5007570;28;20024;-78
2021/05/24 07:56:51;;;;;;;1.65;0.75;;;24.20;83.10;;;24.03;35.61;101272.63;5018113;28;20045;-79
2021/05/24 07:59:21;;;;;;;2.85;0.98;;;24.00;83.50;;;24.02;35.54;101274.47;4952543;28;20021;-78
2021/05/24 08:01:49;;;;;;;2.42;0.82;;;24.20;85.20;;;24.54;37.12;101272.16;5013847;28;20503;-79
2021/05/24 08:04:15;;;;;;;3.00;0.90;;;24.80;86.40;;;24.89;35.88;101269.72;5069083;28;20067;-79
2021/05/24 08:06:41;;;;;;;1.35;0.80;;;25.30;83.70;;;25.10;34.75;101269.44;4986791;28;20037;-78
2021/05/24 08:09:07;;;;;;;1.70;0.75;;;25.30;79.60;;;24.36;34.24;101272.09;5025695;28;20036;-78
2021/05/24 08:11:33;;;;;;;0.90;0.63;;;24.90;79.80;;;24.25;34.28;101268.72;5018560;28;20079;-79
2021/05/24 08:14:00;;;;;;;2.42;0.80;;;24.80;79.80;;;24.24;34.66;101264.34;4983050;28;20030;-79
2021/05/24 08:16:26;;;;;;;2.03;0.80;;;24.50;78.80;;;23.77;35.84;101262.50;5018118;28;20029;-78
2021/05/24 08:18:52;;;;;;;1.85;0.82;;;24.20;84.60;;;23.19;39.56;101257.97;4983945;28;20036;-78
2021/05/24 08:21:18;;;;;;;2.63;0.93;;;24.00;79.90;;;22.79;36.55;101263.41;5004623;28;20053;-78
2021/05/24 08:23:47;;;;;;;2.47;0.85;;;23.20;84.30;;;22.43;41.14;101269.22;5060675;28;20025;-78
2021/05/24 08:26:16;;;;;;;2.70;0.70;;;23.60;85.10;;;22.37;38.54;101263.56;4994714;28;20132;-79
2021/05/24 08:28:42;;;;;;;1.85;0.90;;;23.00;83.90;;;21.95;39.38;101271.66;5003444;28;20016;-78
2021/05/24 08:31:08;;;;;;;1.33;0.50;;;22.90;86.10;;;22.11;39.45;101253.25;4991458;28;20038;-78
2021/05/24 08:33:35;;;;;;;5.22;0.82;;;23.10;82.70;;;22.38;37.85;101252.69;5005570;28;20489;-78
2021/05/24 08:36:02;;;;;;;1.25;0.73;;;23.10;79.50;;;22.17;35.07;101246.50;5033596;28;20082;-78
2021/05/24 08:38:28;;;;;;;1.55;0.65;;;23.20;81.20;;;22.37;36.18;101252.81;4990377;28;20033;-78
2021/05/24 08:41:01;;;;;;;3.38;0.90;;;23.60;82.10;;;22.87;38.13;101255.50;4998613;28;20500;-78
2021/05/24 08:43:30;;;;;;;3.15;0.70;;;23.70;80.30;;;22.33;35.96;101249.56;4983579;28;20728;-78
2021/05/24 08:46:00;;;;;;;1.42;0.60;;;23.10;81.00;;;22.37;37.95;101239.41;4987572;28;20036;-78
2021/05/24 08:48:29;;;;;;;2.45;0.60;;;23.40;80.80;;;22.33;37.91;101244.19;5015916;28;20036;-79
2021/05/24 08:50:55;;;;;;;1.48;0.63;;;22.60;81.40;;;21.50;39.77;101236.09;4985747;28;20035;-78
2021/05/24 08:53:24;;;;;;;3.58;0.60;;;21.80;81.90;;;20.40;40.30;101237.09;4990731;28;20216;-78
2021/05/24 08:55:53;;;;;;;0.88;0.47;;;21.30;83.90;;;20.34;40.22;101229.56;5004677;28;20418;-78
2021/05/24 08:58:20;;;;;;;1.65;0.45;;;20.80;87.50;;;19.90;42.31;101228.59;5018796;28;20133;-79
2021/05/24 09:00:46;;;;;;;0.80;0.43;;;20.20;87.50;;;19.28;41.91;101227.91;4991229;28;20044;-78
2021/05/24 09:03:30;;;;;;;1.60;0.50;;;20.00;85.60;;;19.36;41.63;101233.53;5000660;28;20054;-78
2021/05/24 09:06:00;;;;;;;0.70;0.45;;;19.90;88.00;;;19.22;43.64;101228.38;5012012;28;20085;-79
2021/05/24 09:08:38;;;;;;;2.30;0.82;;;19.80;85.10;;;18.83;40.92;101227.69;5013033;28;20017;-79
2021/05/24 09:11:06;;;;;;;1.15;0.50;;;19.10;85.10;;;18.30;41.57;101227.09;4942700;28;20018;-79
2021/05/24 09:13:34;;;;;;;1.65;0.50;;;18.90;89.60;;;18.12;44.64;101219.44;4953344;28;20125;-78
2021/05/24 09:16:03;;;;;;;2.38;0.65;;;19.10;89.60;;;18.59;43.61;101209.81;4957416;28;20537;-78
2021/05/24 09:18:31;;;;;;;1.35;0.40;;;19.40;87.30;;;18.54;41.62;101221.81;4974653;28;20062;-78
2021/05/24 09:20:57;;;;;;;0.82;0.50;;;19.50;85.90;;;18.92;40.01;101215.50;5012339;28;20149;-79
2021/05/24 09:23:33;;;;;;;1.50;0.40;;;20.00;85.50;;;19.58;39.40;101215.88;4998033;28;20066;-78
2021/05/24 09:26:09;;;;;;;0.90;0.60;;;19.80;83.50;;;19.24;38.38;101213.09;4968999;28;20042;-79
2021/05/24 09:28:51;;;;;;;0.63;0.30;;;19.90;87.50;;;19.53;40.41;101210.88;5015983;28;20050;-78
2021/05/24 09:31:26;;;;;;;2.70;0.47;;;20.50;84.30;;;20.24;39.39;101211.59;4965302;28;20481;-78
2021/05/24 09:34:06;;;;;;;3.10;1.50;;;20.80;84.50;;;20.27;37.46;101208.66;5015379;28;20040;-78
2021/05/24 09:36:34;;;;;;;4.63;0.73;;;20.90;84.30;;;20.61;38.39;101205.97;4990188;28;20032;-78
2021/05/24 09:39:11;;;;;;;1.52;0.50;;;21.00;79.30;;;20.57;36.56;101201.84;5042117;28;20120;-78
2021/05/24 09:42:00;;;;;;;2.78;0.60;;;21.20;80.20;;;20.87;35.46;101200.31;5034099;28;20059;-78
2021/05/24 09:44:32;;;;;;;1.20;0.40;;;21.60;78.00;;;21.02;33.97;101209.75;5029029;28;20036;-78
2021/05/24 09:47:02;;;;;;;1.13;0.40;;;21.30;79.30;;;21.00;35.75;101190.28;5034437;28;20021;-78
2021/05/24 09:49:35;;;;;;;6.15;0.68;;;21.50;80.00;;;21.23;35.56;101193.72;4991296;28;20029;-78
2021/05/24 09:52:02;;;;;;;0.52;0.30;;;22.20;80.80;;;22.06;37.02;101201.84;4996289;28;20556;-78
2021/05/24 09:54:35;;;;;;;0.52;0.30;;;22.10;78.90;;;21.43;35.92;101202.78;5007635;28;20028;-78
2021/05/24 09:57:05;;;;;;;0.80;0.50;;;21.40;80.90;;;20.70;36.98;101196.34;5029775;28;20029;-78
2021/05/24 09:59:38;;;;;;;3.05;0.70;;;21.80;82.00;;;21.40;38.03;101189.59;4992629;28;20028;-78
2021/05/24 10:02:07;;;;;;;0.77;0.40;;;21.90;78.00;;;21.10;36.10;101188.56;5013009;28;20412;-78
2021/05/24 10:04:38;;;;;;;1.05;0.50;;;21.60;79.50;;;21.04;36.51;101196.25;5011574;28;20344;-78
2021/05/24 10:07:06;;;;;;;1.58;0.63;;;22.00;80.90;;;21.57;35.72;101184.66;4986919;28;20048;-78
2021/05/24 10:09:34;;;;;;;3.25;0.52;;;22.00;78.10;;;21.73;35.05;101182.38;4993482;28;20066;-78
2021/05/24 10:12:03;;;;;;;1.45;0.50;;;22.20;79.30;;;21.89;34.44;101184.56;5008444;28;20099;-78
2021/05/24 10:14:34;;;;;;;0.95;0.40;;;22.70;77.00;;;22.29;33.46;101181.94;5006067;28;20071;-78
2021/05/24 10:17:03;;;;;;;0.95;0.50;;;22.50;76.90;;;21.75;35.34;101184.91;5020558;28;20364;-78
2021/05/24 10:19:30;;;;;;;1.45;0.50;;;22.40;80.70;;;22.35;38.30;101169.78;5019165;28;20032;-79
2021/05/24 10:22:01;;;;;;;2.00;0.63;;;23.10;76.80;;;22.63;33.45;101172.69;5014178;28;20420;-78
2021/05/24 10:24:30;;;;;;;4.93;0.57;;;23.10;75.70;;;22.64;32.28;101164.50;5046133;28;20017;-78